Aeroporto :
LOGIN :

Iscrizione | Disclaimer

   EN    FR    IT 

 










Sommario :    VFR   VFR Marginale   IFR   IFR Intensivo   IFR Molto Intensivo
Visibilità : 
Base nubi : 
>= 8 km
>= 3000ft
5 / 8 km
1000 / 3000 ft
1500m / 5 km
500 / 1000 ft
800 / 1500m
200 / 500 ft
< 800m
< 200 ft
Simboli :   Temporali  Nebbia  Neve Forte  Precipitazioni Forti  Vento > 20 kt
SIGMETs :   Varie  Temporali  Ghiacco  Turbolenza  Onda orograficha  Ceneri Vulcaniche







- Altitudine del aeroporto : 79 ft
- Codice IATA : NSY


LICZ - Sigonella (Mil) Catania

ULTIMO METAR :
  • 210655Z 27006KT 6000 SCT030 07/06 Q1027 RMK SCT VIS MIN 6000 WIND THR28 28005KT WIND THR10 27005KT A3034 WHT

METARs OBSOLETI :
  • 210555Z 26005KT 7000 SCT030 SCT070 06/06 Q1026 RMK BKN VIS MIN 7000 WIND THR28 26005KT WIND THR10 27005KT A3032 WHT
  • 210455Z 23004KT 8000 BKN030 07/07 Q1026 RMK BKN VIS MIN 8000 WIND THR28 22004KT WIND THR10 22003KT A3031 BLU

TAF TAF LICZ
Valido dal 21 a 06 ore il 21 a 15 ore UTC


210500Z 2106/2115 VRB03KT 9999 SCT030
Nessun NOTAM noto per questo aeroporto.



MetMap, La meteo Aeronautica in un colpo d'occhio ! - Copyright ORBIFLY Dicembre 2007 - Disclaimer

ORBIFLY MET'MAP TEAM :

Programmazione e sviluppo : Alexandra Zaïnal
Concezione e sviluppo : Baudouin d'Aumeries
Co-Programmazione e sviluppo : Marc-Olivier Méhu
Supporto tecnico e logistico : Manuel Goepfert
Aiuto per la traduzione : Arnaldo La Scala

Contatto : metmap@orbifly.com




FONTI E CREDITI :

   NOAA